Terminal Aerodrome Forecast
Issued by NWS Birmingham, AL

Home | Current Version | Previous Version | Text Only | Print | Product List | Glossary On
Versions: 1 2 3 4 5 6 7 8 9 10 11 12 13 14 15 16 17 18 19 20 21
000
FTUS44 KBMX 231139
TAFBHM
TAF
KBHM 231139Z 2312/2412 09003KT P6SM OVC022
     FM231500 13005KT P6SM BKN025
     FM231800 17007KT P6SM SCT025
     FM240800 16004KT P6SM SCT020=

USA.gov is the U.S. government's official web portal to all federal, state and local government web resources and services.